Addison Township, Michigan
Current Conditions -  °F | °C
As of 11:13 PM on Wednesday 17 Dec 2014 (Local Time) from KD95 Reporting Station
Overcast Overcast  
Wind Chill: 19°   Ceiling: 2000
Heat Index: 28°   Visibility: 10mi
Dew Point: 21°   Wind: 9mph
Humidity: 76%   Direction: 280°W
Pressure: 30.1"   Gusts: 16mph
Location:  42.8434°N, 83.1398°W
Report Text: KD95 180413Z AUTO 28008G14KT 10SM OVC020 M02/M06 A3010 RMK AO2 T10231060
Loading
Personal Weather Stations






























Interactive Weather Map New forecast layout! Learn more

10-Day Weather Forecast

Advertisements
Track Severe Weather on mobile